Dover, Michigan
Current Conditions -  °F | °C
As of 12:53 AM on Thursday 29 Jan 2015 (Local Time) from KARB Reporting Station
Overcast Overcast  
Wind Chill: 14°   Ceiling: 11000
Heat Index: 24°   Visibility: 10mi
Dew Point: 15°   Wind: 10mph
Humidity: 69%   Direction: 150°SSE
Pressure: 30.06"   Gusts: NA
Location:  42.3528°N, 83.8974°W
Report Text: KARB 290553Z AUTO 15009KT 10SM OVC110 M04/M09 A3006 RMK AO2 SLP189 T10441094 11039 21050 57035
Loading
Personal Weather Stations






























Interactive Weather Map New forecast layout! Learn more

10-Day Weather Forecast

Advertisements
Track Severe Weather on mobile